East Stroudsburg, Pennsylvania
Current Conditions -  °F | °C
As of 3:53 AM on Friday 19 Dec 2014 (Local Time) from KMPO Reporting Station
Overcast Overcast  
Wind Chill: 18°   Ceiling: 1700
Heat Index: 29°   Visibility: 10mi
Dew Point: 22°   Wind: 15mph
Humidity: 75%   Direction: 310°NW
Pressure: 29.91"   Gusts: 21mph
Location:  40.99°N, 75.18°W
Report Text: KMPO 190853Z AUTO 31013G18KT 10SM OVC017 M02/M06 A2991 RMK AO2 SLP148 T10171056 50001
Loading
Personal Weather Stations






























Interactive Weather Map New forecast layout! Learn more

10-Day Weather Forecast

Advertisements
Track Severe Weather on mobile